Main page
METAR-TAF:

METAR-TAF

Airports :

Velana International Airport

Malé, Maldives

latitude: 04-12N, longitude: 073-32E, elevation: 2 m

Current weather observation

The report was made 47 minutes ago, at 12:00 UTC
Wind 4 kt from the West/Northwest
Temperature 30°C
Humidity 70%
Pressure 1010 hPa
Visibility 10 km or more
Few clouds at a height of 1800 ft

METAR: VRMM 181200Z 30004KT 9999 FEW018 30/24 Q1010 NOSIG

Time: 17:47 (12:47 UTC)

Forecast

The report was made 1 hour and 47 minutes ago, at 11:00 UTC
Forecast valid from 18 at 12 UTC to 19 at 18 UTC
Wind 5 kt from the West
Visibility 10 km or more
Few clouds at a height of 1800 ft

TAF: VRMM 181100Z 1812/1918 27005KT 9999 FEW018

Weather observations and forecasts of more than 4000 airports (METAR and TAF reports).

The available stations are represented by yellow and red dots on the map.

Hover mouse over dot to see the name of the station.

Then click to see weather observations and forecasts.

To change the map : click on the green buttons with a black cross to zoom in, on the green button with a dash to zoom out, or on the green arrows for adjacent maps.


METAR-TAF: